createdAt,value
2019-02-20T00:00:30.431Z,5.80
2019-02-20T00:03:04.289Z,5.90
2019-02-20T00:05:37.908Z,5.90
2019-02-20T00:08:11.584Z,5.90
2019-02-20T00:10:45.550Z,5.90
2019-02-20T00:13:19.137Z,5.90
2019-02-20T00:15:52.899Z,5.90
2019-02-20T00:18:26.601Z,5.90
2019-02-20T00:21:12.758Z,5.90
2019-02-20T00:23:46.362Z,5.90
2019-02-20T00:26:29.247Z,6.00
2019-02-20T00:29:02.923Z,6.00
2019-02-20T00:31:36.516Z,6.10
2019-02-20T00:34:14.136Z,6.10
2019-02-20T00:36:47.725Z,6.20
2019-02-20T00:39:28.562Z,6.10
2019-02-20T00:42:02.151Z,6.20
2019-02-20T00:44:40.785Z,6.20
2019-02-20T00:47:16.018Z,6.20
2019-02-20T00:49:49.716Z,6.20
2019-02-20T00:52:27.951Z,6.10
2019-02-20T00:55:01.581Z,6.10
2019-02-20T00:57:35.266Z,6.20
2019-02-20T01:00:16.371Z,6.20
2019-02-20T01:02:49.959Z,6.20
2019-02-20T01:05:23.567Z,6.10
2019-02-20T01:07:57.309Z,6.10
2019-02-20T01:10:30.925Z,6.10
2019-02-20T01:13:07.646Z,6.10
2019-02-20T01:15:41.334Z,6.10
2019-02-20T01:18:17.967Z,6.20
2019-02-20T01:20:51.581Z,6.20
2019-02-20T01:23:43.347Z,6.20
2019-02-20T01:26:16.956Z,6.20
2019-02-20T01:28:56.635Z,6.20
2019-02-20T01:31:30.293Z,6.20
2019-02-20T01:34:03.961Z,6.20
2019-02-20T01:36:37.639Z,6.10
2019-02-20T01:39:11.337Z,6.10
2019-02-20T01:41:44.956Z,6.20
2019-02-20T01:44:18.556Z,6.20
2019-02-20T01:46:55.975Z,6.20
2019-02-20T01:49:29.587Z,6.20
2019-02-20T01:52:03.262Z,6.20
2019-02-20T01:54:40.024Z,6.20
2019-02-20T01:57:19.616Z,6.30
2019-02-20T01:59:53.272Z,6.30
2019-02-20T02:02:27.916Z,6.30
2019-02-20T02:05:20.873Z,6.20
2019-02-20T02:07:54.832Z,6.20
2019-02-20T02:10:28.456Z,6.20
2019-02-20T02:13:05.419Z,6.30
2019-02-20T02:15:39.053Z,6.30
2019-02-20T02:18:12.632Z,6.30
2019-02-20T02:20:47.091Z,6.40
2019-02-20T02:23:20.755Z,6.30
2019-02-20T02:25:57.422Z,6.40
2019-02-20T02:28:31.040Z,6.30
2019-02-20T02:31:04.801Z,6.20
2019-02-20T02:33:38.419Z,6.20
2019-02-20T02:36:12.111Z,6.20
2019-02-20T02:38:45.720Z,6.20
2019-02-20T02:41:19.328Z,6.20
2019-02-20T02:43:52.963Z,6.20
2019-02-20T02:46:26.573Z,6.20
2019-02-20T02:49:03.344Z,6.20
2019-02-20T02:51:37.053Z,6.20
2019-02-20T02:54:10.623Z,6.30
2019-02-20T02:56:44.284Z,6.30
2019-02-20T02:59:30.298Z,6.30
2019-02-20T03:02:04.442Z,6.20
2019-02-20T03:04:38.118Z,6.20
2019-02-20T03:07:14.683Z,6.20
2019-02-20T03:09:48.294Z,6.10
2019-02-20T03:12:21.920Z,6.10
2019-02-20T03:14:55.580Z,6.00
2019-02-20T03:17:29.274Z,5.90
2019-02-20T03:20:03.019Z,5.90
2019-02-20T03:22:36.645Z,6.00
2019-02-20T03:25:10.373Z,6.00
2019-02-20T03:27:43.995Z,6.00
2019-02-20T03:30:22.298Z,6.00
2019-02-20T03:32:55.925Z,6.00
2019-02-20T03:35:29.534Z,5.90
2019-02-20T03:38:03.152Z,5.90
2019-02-20T03:40:36.794Z,5.90
2019-02-20T03:43:10.545Z,5.90
2019-02-20T03:45:44.275Z,5.90
2019-02-20T03:48:17.905Z,6.00
2019-02-20T03:50:51.791Z,6.00
2019-02-20T03:53:28.465Z,6.10
2019-02-20T03:56:02.570Z,6.00
2019-02-20T03:58:36.223Z,6.00
2019-02-20T04:01:18.758Z,6.00
2019-02-20T04:03:52.377Z,6.00
2019-02-20T04:06:26.067Z,6.10
2019-02-20T04:09:00.127Z,6.10
2019-02-20T04:11:40.186Z,6.20
2019-02-20T04:14:13.775Z,6.20
2019-02-20T04:16:47.454Z,6.20
2019-02-20T04:19:21.076Z,6.50
2019-02-20T04:21:54.665Z,6.20
2019-02-20T04:24:28.303Z,6.20
2019-02-20T04:27:04.921Z,6.20
2019-02-20T04:29:38.582Z,6.20
2019-02-20T04:32:24.840Z,6.20
2019-02-20T04:34:58.522Z,6.20
2019-02-20T04:37:32.180Z,6.20
2019-02-20T04:40:06.772Z,6.10
2019-02-20T04:42:40.393Z,6.20
2019-02-20T04:45:14.023Z,6.20
2019-02-20T04:47:47.599Z,6.20
2019-02-20T04:50:21.227Z,6.20
2019-02-20T04:52:54.878Z,6.20
2019-02-20T04:55:28.636Z,6.20
2019-02-20T04:58:19.632Z,6.30
2019-02-20T05:00:53.282Z,6.30
2019-02-20T05:03:26.906Z,6.20
2019-02-20T05:06:00.532Z,6.30
2019-02-20T05:08:34.391Z,6.30
2019-02-20T05:11:08.035Z,6.40
2019-02-20T05:13:45.108Z,6.30
2019-02-20T05:16:18.815Z,6.30
2019-02-20T05:18:57.566Z,6.30
2019-02-20T05:21:31.199Z,6.30
2019-02-20T05:24:11.688Z,6.40
2019-02-20T05:26:45.295Z,6.40
2019-02-20T05:29:22.038Z,6.40
2019-02-20T05:31:55.727Z,6.40
2019-02-20T05:34:36.001Z,6.30
2019-02-20T05:37:09.656Z,6.30
2019-02-20T05:39:47.437Z,6.30
2019-02-20T05:42:21.102Z,6.30
2019-02-20T05:44:58.597Z,6.30
2019-02-20T05:47:32.187Z,6.30
2019-02-20T05:50:13.062Z,6.30
2019-02-20T05:52:46.763Z,6.20
2019-02-20T05:55:20.470Z,6.20
2019-02-20T05:58:00.103Z,6.20
2019-02-20T06:00:33.728Z,6.10
2019-02-20T06:03:11.855Z,6.10
2019-02-20T06:05:45.563Z,6.10
2019-02-20T06:08:19.138Z,6.10
2019-02-20T06:10:52.824Z,6.10
2019-02-20T06:13:30.121Z,6.10
2019-02-20T06:16:03.814Z,6.10
2019-02-20T06:18:37.425Z,6.10
2019-02-20T06:21:11.055Z,6.10
2019-02-20T06:23:50.240Z,6.10
2019-02-20T06:26:23.874Z,6.10
2019-02-20T06:29:00.677Z,6.10
2019-02-20T06:31:34.362Z,6.10
2019-02-20T06:34:20.005Z,6.10
2019-02-20T06:36:53.628Z,6.00
2019-02-20T06:39:27.223Z,6.00
2019-02-20T06:42:00.900Z,6.10
2019-02-20T06:44:34.657Z,6.10
2019-02-20T06:47:08.279Z,6.10
2019-02-20T06:49:41.931Z,6.10
2019-02-20T06:52:15.596Z,6.10
2019-02-20T06:54:53.865Z,6.10
2019-02-20T06:57:26.475Z,6.10
2019-02-20T07:00:00.158Z,6.20
2019-02-20T07:02:35.758Z,6.10
2019-02-20T07:05:30.564Z,6.20
2019-02-20T07:08:19.184Z,6.20
2019-02-20T07:11:16.867Z,6.20
2019-02-20T07:14:19.435Z,6.30
2019-02-20T07:17:02.372Z,6.30
2019-02-20T07:19:47.875Z,6.30
2019-02-20T07:22:27.804Z,6.40
2019-02-20T07:25:22.551Z,6.40
2019-02-20T07:28:18.718Z,6.40
2019-02-20T07:30:52.349Z,6.50
2019-02-20T07:33:26.899Z,6.50
2019-02-20T07:36:00.515Z,6.50
2019-02-20T07:38:41.258Z,6.80
2019-02-20T07:41:14.880Z,6.90
2019-02-20T07:43:48.550Z,7.50
2019-02-20T07:46:23.132Z,7.40
2019-02-20T07:48:56.746Z,7.30
2019-02-20T07:51:48.531Z,7.20
2019-02-20T07:54:22.208Z,7.10
2019-02-20T07:56:58.794Z,7.10
2019-02-20T07:59:32.491Z,7.10
2019-02-20T08:02:06.250Z,7.10
2019-02-20T08:04:39.879Z,7.00
2019-02-20T08:07:15.522Z,7.10
2019-02-20T08:09:49.208Z,7.20
2019-02-20T08:12:22.891Z,7.30
2019-02-20T08:14:56.591Z,7.30
2019-02-20T08:17:30.535Z,7.30
2019-02-20T08:20:05.498Z,7.30
2019-02-20T08:22:51.183Z,7.30
2019-02-20T08:25:24.879Z,7.30
2019-02-20T08:27:58.568Z,7.30
2019-02-20T08:30:32.146Z,7.40
2019-02-20T08:33:05.844Z,7.40
2019-02-20T08:35:51.555Z,7.60
2019-02-20T08:38:25.247Z,7.80
2019-02-20T08:40:58.830Z,8.00
2019-02-20T08:43:32.444Z,8.10
2019-02-20T08:46:06.105Z,8.20
2019-02-20T08:49:00.122Z,8.70
2019-02-20T08:51:33.791Z,8.90
2019-02-20T08:54:07.427Z,8.80
2019-02-20T08:56:41.021Z,8.60
2019-02-20T08:59:14.640Z,8.40
2019-02-20T09:01:51.907Z,8.40
2019-02-20T09:04:25.594Z,8.50
2019-02-20T09:06:59.219Z,9.00
2019-02-20T09:09:44.844Z,9.90
2019-02-20T09:12:18.443Z,9.80
2019-02-20T09:14:52.092Z,10.00
2019-02-20T09:17:26.252Z,10.10
2019-02-20T09:20:00.817Z,10.20
2019-02-20T09:22:35.043Z,10.20
2019-02-20T09:25:19.428Z,10.40
2019-02-20T09:27:59.918Z,11.00
2019-02-20T09:30:34.096Z,11.50
2019-02-20T09:33:21.451Z,11.70
2019-02-20T09:35:55.797Z,11.30
2019-02-20T09:38:30.039Z,10.90
2019-02-20T09:41:04.286Z,10.70
2019-02-20T09:43:42.999Z,10.80
2019-02-20T09:46:17.250Z,11.20
2019-02-20T09:48:51.463Z,11.10
2019-02-20T09:51:25.820Z,11.30
2019-02-20T09:54:00.036Z,10.70
2019-02-20T09:56:34.256Z,10.40
2019-02-20T09:59:11.422Z,9.80
2019-02-20T10:01:45.716Z,9.60
2019-02-20T10:04:22.900Z,9.60
2019-02-20T10:06:57.094Z,9.80
2019-02-20T10:09:40.433Z,10.10
2019-02-20T10:12:14.698Z,10.20
2019-02-20T10:14:49.215Z,10.00
2019-02-20T10:17:23.496Z,10.40
2019-02-20T10:19:57.721Z,10.70
2019-02-20T10:22:32.009Z,10.80
2019-02-20T10:25:08.517Z,11.00
2019-02-20T10:27:42.792Z,10.80
2019-02-20T10:30:19.984Z,10.80
2019-02-20T10:32:54.203Z,10.60
2019-02-20T10:35:31.117Z,10.50
2019-02-20T10:38:05.421Z,10.30
2019-02-20T10:40:39.648Z,10.40
2019-02-20T10:43:13.898Z,10.50
2019-02-20T10:45:48.118Z,10.80
2019-02-20T10:48:22.381Z,10.50
2019-02-20T10:50:56.603Z,10.30
2019-02-20T10:53:30.189Z,9.90
2019-02-20T10:56:11.054Z,9.90
2019-02-20T10:58:45.337Z,10.30
2019-02-20T11:01:19.601Z,10.80
2019-02-20T11:03:53.803Z,10.90
2019-02-20T11:06:28.047Z,10.70
2019-02-20T11:09:05.571Z,10.50
2019-02-20T11:11:39.756Z,10.60
2019-02-20T11:14:13.992Z,11.10
2019-02-20T11:16:48.185Z,11.30
2019-02-20T11:19:31.752Z,11.20
2019-02-20T11:22:06.277Z,11.00
2019-02-20T11:24:47.962Z,11.50
2019-02-20T11:27:22.483Z,11.50
2019-02-20T11:29:56.803Z,11.90
2019-02-20T11:32:30.988Z,11.60
2019-02-20T11:35:08.839Z,11.70
2019-02-20T11:37:43.156Z,11.90
2019-02-20T11:40:17.493Z,11.50
2019-02-20T11:42:51.679Z,10.90
2019-02-20T11:45:26.294Z,10.70
2019-02-20T11:48:00.623Z,10.70
2019-02-20T11:50:35.048Z,10.70
2019-02-20T11:53:12.355Z,11.00
2019-02-20T11:55:46.576Z,11.40
2019-02-20T11:58:20.764Z,11.60
2019-02-20T12:00:55.132Z,11.80
2019-02-20T12:03:29.317Z,12.00
2019-02-20T12:06:03.588Z,11.90
2019-02-20T12:08:37.895Z,11.70
2019-02-20T12:11:12.161Z,11.30
2019-02-20T12:13:46.307Z,11.00
2019-02-20T12:16:32.727Z,10.70
2019-02-20T12:19:06.958Z,10.70
2019-02-20T12:21:41.258Z,10.50
2019-02-20T12:24:15.569Z,10.30
2019-02-20T12:26:49.353Z,10.20
2019-02-20T12:29:22.987Z,10.20
2019-02-20T12:31:56.732Z,10.20
2019-02-20T12:34:30.748Z,10.10
2019-02-20T12:37:04.507Z,10.10
2019-02-20T12:39:38.131Z,10.00
2019-02-20T12:42:13.658Z,9.90
2019-02-20T12:44:47.343Z,9.80
2019-02-20T12:47:21.019Z,9.50
2019-02-20T12:49:55.044Z,9.60
2019-02-20T12:52:31.643Z,9.60
2019-02-20T12:55:07.031Z,9.80
2019-02-20T12:57:40.638Z,9.80
2019-02-20T13:00:18.471Z,9.70
2019-02-20T13:02:52.122Z,9.70
2019-02-20T13:05:25.885Z,9.60
2019-02-20T13:07:59.545Z,9.60
2019-02-20T13:10:39.569Z,9.50
2019-02-20T13:13:13.241Z,9.40
2019-02-20T13:15:55.220Z,9.40
2019-02-20T13:18:28.832Z,9.50
2019-02-20T13:21:08.465Z,9.50
2019-02-20T13:23:42.083Z,9.50
2019-02-20T13:26:31.038Z,9.50
2019-02-20T13:29:04.735Z,9.60
2019-02-20T13:31:42.225Z,9.60
2019-02-20T13:34:15.844Z,9.60
2019-02-20T13:36:49.710Z,9.70
2019-02-20T13:39:23.300Z,9.80
2019-02-20T13:42:01.181Z,9.70
2019-02-20T13:44:34.828Z,9.50
2019-02-20T13:47:12.349Z,9.30
2019-02-20T13:49:46.080Z,9.30
2019-02-20T13:52:19.714Z,9.20
2019-02-20T13:54:58.022Z,9.20
2019-02-20T13:57:31.727Z,9.20
2019-02-20T14:00:08.812Z,9.10
2019-02-20T14:02:42.683Z,9.00
2019-02-20T14:05:16.278Z,8.90
2019-02-20T14:07:59.607Z,8.90
2019-02-20T14:10:33.355Z,9.00
2019-02-20T14:13:08.444Z,8.90
2019-02-20T14:15:42.098Z,8.90
2019-02-20T14:18:15.723Z,8.80
2019-02-20T14:20:49.389Z,8.80
2019-02-20T14:23:23.045Z,8.80
2019-02-20T14:26:05.469Z,8.70
2019-02-20T14:28:39.100Z,8.80
2019-02-20T14:34:17.564Z,8.70
2019-02-20T14:36:51.232Z,8.60
2019-02-20T14:39:30.077Z,8.70
2019-02-20T14:42:04.083Z,8.70
2019-02-20T14:44:42.860Z,8.70
2019-02-20T14:47:16.451Z,8.70
2019-02-20T14:50:11.661Z,8.70
2019-02-20T14:52:45.549Z,8.70
2019-02-20T14:55:23.711Z,8.60
2019-02-20T14:57:57.301Z,8.50
2019-02-20T15:00:34.471Z,8.50
2019-02-20T15:03:08.604Z,8.50
2019-02-20T15:05:43.329Z,8.50
2019-02-20T15:08:16.920Z,8.40
2019-02-20T15:11:02.702Z,8.40
2019-02-20T15:13:36.391Z,8.40
2019-02-20T15:16:22.048Z,8.40
2019-02-20T15:18:55.715Z,8.40
2019-02-20T15:21:31.643Z,8.40
2019-02-20T15:24:05.399Z,8.30
2019-02-20T15:26:39.031Z,8.40
2019-02-20T15:29:12.692Z,8.40
2019-02-20T15:31:51.983Z,8.30
2019-02-20T15:34:25.641Z,8.40
2019-02-20T15:36:59.327Z,8.30
2019-02-20T15:39:33.016Z,8.30
2019-02-20T15:42:06.745Z,8.30
2019-02-20T15:44:43.519Z,8.30
2019-02-20T15:47:17.116Z,8.30
2019-02-20T15:49:56.927Z,8.30
2019-02-20T15:52:30.584Z,8.30
2019-02-20T15:55:11.226Z,8.30
2019-02-20T15:57:44.456Z,8.40
2019-02-20T16:00:38.401Z,8.40
2019-02-20T16:03:12.085Z,8.40
2019-02-20T16:05:45.843Z,8.30
2019-02-20T16:08:19.533Z,8.30
2019-02-20T16:10:53.150Z,8.30
2019-02-20T16:13:27.231Z,8.30
2019-02-20T16:16:00.906Z,8.20
2019-02-20T16:18:38.455Z,8.30
2019-02-20T16:21:12.205Z,8.20
2019-02-20T16:23:46.217Z,8.20
2019-02-20T16:26:19.872Z,8.20
2019-02-20T16:28:53.523Z,8.10
2019-02-20T16:31:39.242Z,8.10
2019-02-20T16:34:12.861Z,8.00
2019-02-20T16:36:46.464Z,8.00
2019-02-20T16:39:20.171Z,8.00
2019-02-20T16:41:53.844Z,7.90
2019-02-20T16:44:28.740Z,7.90
2019-02-20T16:47:02.397Z,7.90
2019-02-20T16:49:43.194Z,7.80
2019-02-20T16:52:16.837Z,7.80
2019-02-20T16:54:50.468Z,7.80
2019-02-20T16:57:24.058Z,7.80
2019-02-20T16:59:58.702Z,7.80
2019-02-20T17:02:33.275Z,7.80
2019-02-20T17:05:13.451Z,7.80
2019-02-20T17:07:48.829Z,7.70
2019-02-20T17:10:22.618Z,7.70
2019-02-20T17:12:57.210Z,7.70
2019-02-20T17:15:31.010Z,7.70
2019-02-20T17:18:17.719Z,7.70
2019-02-20T17:20:51.467Z,7.70
2019-02-20T17:23:34.773Z,7.70
2019-02-20T17:26:08.495Z,7.70
2019-02-20T17:28:42.220Z,7.70
2019-02-20T17:31:15.818Z,7.80
2019-02-20T17:34:26.079Z,7.70
2019-02-20T17:36:59.764Z,7.70
2019-02-20T17:39:36.737Z,7.70
2019-02-20T17:42:10.455Z,7.60
2019-02-20T17:44:47.466Z,7.60
2019-02-20T17:47:21.062Z,7.50
2019-02-20T17:49:58.416Z,7.40
2019-02-20T17:52:32.086Z,7.40
2019-02-20T17:55:28.491Z,7.30
2019-02-20T17:58:02.223Z,7.30
2019-02-20T18:00:38.385Z,7.20
2019-02-20T18:03:25.720Z,7.20
2019-02-20T18:05:59.359Z,7.10
2019-02-20T18:08:42.209Z,7.10
2019-02-20T18:11:15.839Z,7.10
2019-02-20T18:14:01.427Z,7.20
2019-02-20T18:16:35.197Z,7.20
2019-02-20T18:19:08.833Z,7.20
2019-02-20T18:21:42.465Z,7.20
2019-02-20T18:24:29.405Z,7.30
2019-02-20T18:27:03.173Z,7.30
2019-02-20T18:29:37.054Z,7.30
2019-02-20T18:32:10.822Z,7.40
2019-02-20T18:34:46.822Z,7.40
2019-02-20T18:37:22.346Z,7.40
2019-02-20T18:40:00.878Z,7.50
2019-02-20T18:42:36.228Z,7.50
2019-02-20T18:45:13.650Z,7.50
2019-02-20T18:47:47.300Z,7.60
2019-02-20T18:50:20.861Z,7.60
2019-02-20T18:52:59.204Z,7.60
2019-02-20T18:55:32.874Z,7.60
2019-02-20T18:58:06.624Z,7.50
2019-02-20T19:00:41.607Z,7.50
2019-02-20T19:03:15.257Z,7.50
2019-02-20T19:05:49.105Z,7.50
2019-02-20T19:08:43.302Z,7.40
2019-02-20T19:11:55.251Z,7.40
2019-02-20T19:14:48.335Z,7.40
2019-02-20T19:17:27.566Z,7.30
2019-02-20T19:20:04.268Z,7.30
2019-02-20T19:22:55.534Z,7.30
2019-02-20T19:25:59.589Z,7.30
2019-02-20T19:28:55.907Z,7.30
2019-02-20T19:31:47.710Z,7.30
2019-02-20T19:34:39.999Z,7.20
2019-02-20T19:41:00.254Z,7.20
2019-02-20T19:43:37.242Z,7.20
2019-02-20T19:46:36.634Z,7.20
2019-02-20T19:52:50.995Z,7.30
2019-02-20T19:56:10.126Z,7.30
2019-02-20T19:58:59.032Z,7.30
2019-02-20T20:01:58.266Z,7.30
2019-02-20T20:05:09.647Z,7.30
2019-02-20T20:07:49.636Z,7.20
2019-02-20T20:10:32.394Z,7.20
2019-02-20T20:13:24.531Z,7.20
2019-02-20T20:16:25.505Z,7.20
2019-02-20T20:19:18.689Z,7.20
2019-02-20T20:22:04.351Z,7.20
2019-02-20T20:24:43.946Z,7.10
2019-02-20T20:27:32.680Z,7.10
2019-02-20T20:33:29.887Z,7.10
2019-02-20T20:36:09.783Z,7.10
2019-02-20T20:39:05.913Z,7.10
2019-02-20T20:41:51.565Z,7.10
2019-02-20T20:44:34.415Z,7.10
2019-02-20T20:47:19.687Z,7.10
2019-02-20T20:50:13.246Z,7.00
2019-02-20T20:53:01.851Z,7.00
2019-02-20T20:56:06.306Z,7.00
2019-02-20T20:58:48.972Z,7.10
2019-02-20T21:01:37.803Z,7.00
2019-02-20T21:04:23.184Z,7.00
2019-02-20T21:07:31.703Z,7.10
2019-02-20T21:10:11.323Z,7.00
2019-02-20T21:13:04.673Z,7.10
2019-02-20T21:15:56.603Z,7.10
2019-02-20T21:18:53.399Z,7.10
2019-02-20T21:21:51.191Z,7.10
2019-02-20T21:25:00.976Z,7.10
2019-02-20T21:27:53.159Z,7.10
2019-02-20T21:30:57.431Z,7.10
2019-02-20T21:33:53.407Z,7.10
2019-02-20T21:36:42.186Z,7.10
2019-02-20T21:39:30.766Z,7.10
2019-02-20T21:45:23.652Z,7.10
2019-02-20T21:48:15.598Z,7.10
2019-02-20T21:51:04.397Z,7.10
2019-02-20T21:53:44.258Z,7.10
2019-02-20T21:56:29.944Z,7.10
2019-02-20T21:59:23.604Z,7.00
2019-02-20T22:02:03.174Z,7.00
2019-02-20T22:04:42.618Z,7.10
2019-02-20T22:07:39.645Z,7.00
2019-02-20T22:10:46.643Z,7.00
2019-02-20T22:13:42.635Z,7.00
2019-02-20T22:16:44.918Z,7.00
2019-02-20T22:19:40.020Z,7.00
2019-02-20T22:22:19.713Z,7.00
2019-02-20T22:25:16.066Z,7.00
2019-02-20T22:27:55.373Z,7.00
2019-02-20T22:30:54.915Z,7.10
2019-02-20T22:33:31.602Z,7.10
2019-02-20T22:36:37.582Z,7.10
2019-02-20T22:39:37.029Z,7.20
2019-02-20T22:42:34.894Z,7.20
2019-02-20T22:45:33.546Z,7.20
2019-02-20T22:48:27.358Z,7.20
2019-02-20T22:51:16.236Z,7.30
2019-02-20T22:54:04.697Z,7.30
2019-02-20T22:56:50.393Z,7.30
2019-02-20T22:59:30.030Z,7.30
2019-02-20T23:02:27.959Z,7.30
2019-02-20T23:05:33.326Z,7.30
2019-02-20T23:08:33.638Z,7.30
2019-02-20T23:11:32.775Z,7.30
2019-02-20T23:14:35.246Z,7.30
2019-02-20T23:17:09.050Z,7.30
2019-02-20T23:19:48.647Z,7.30
2019-02-20T23:22:22.382Z,7.30
2019-02-20T23:24:56.464Z,7.40
2019-02-20T23:27:30.095Z,7.40
2019-02-20T23:30:12.541Z,7.40
2019-02-20T23:33:01.647Z,7.40
2019-02-20T23:35:35.326Z,7.40
2019-02-20T23:38:13.143Z,7.40
2019-02-20T23:40:46.805Z,7.40
2019-02-20T23:43:20.561Z,7.40
2019-02-20T23:46:03.397Z,7.40
2019-02-20T23:48:37.006Z,7.50
2019-02-20T23:51:10.638Z,7.40
2019-02-20T23:53:47.521Z,7.50
2019-02-20T23:56:21.174Z,7.40
2019-02-20T23:58:54.825Z,7.50
